Time;durP1;ratioP1;P1;durP2;ratioP2;P2;SDS_P1;SDS_P2;PMS_P1;PMS_P2;Temp;Humidity;BMP_temperature;BMP_pressure;BME280_temperature;BME280_humidity;BME280_pressure;Samples;Min_cycle;Max_cycle;Signal;HPM_P1;HPM_P2
2022/03/11 00:01:42;;;;;;;8.67;3.40;;;-2.60;57.40;;;-4.79;53.49;101822.75;10417057;27;98525;-77
2022/03/11 00:07:05;;;;;;;18.53;6.33;;;-2.70;57.90;;;-4.81;53.21;101808.94;10405926;28;96789;-76
2022/03/11 00:12:09;;;;;;;13.77;4.93;;;-2.70;57.60;;;-4.80;53.44;101810.63;10453743;27;96593;-76
2022/03/11 00:17:12;;;;;;;7.30;3.77;;;-2.70;58.80;;;-4.81;53.44;101813.25;10415238;27;96822;-76
2022/03/11 00:22:16;;;;;;;12.53;4.43;;;-2.70;58.40;;;-4.89;53.02;101810.84;10419765;28;96478;-77
2022/03/11 00:27:19;;;;;;;11.10;4.00;;;-2.80;58.60;;;-4.99;53.80;101806.69;10442507;27;96566;-77
2022/03/11 00:32:22;;;;;;;12.50;3.90;;;-2.80;58.60;;;-5.15;54.20;101813.94;10423737;27;96663;-77
2022/03/11 00:37:26;;;;;;;7.43;3.73;;;-2.90;58.90;;;-5.28;54.32;101807.25;10431100;27;96668;-77
2022/03/11 00:42:29;;;;;;;13.90;5.40;;;-3.00;58.40;;;-5.28;54.71;101815.88;10421594;27;96679;-77
2022/03/11 00:47:32;;;;;;;10.47;4.43;;;-3.10;58.10;;;-5.26;54.63;101813.28;10445375;27;97991;-78
2022/03/11 00:52:35;;;;;;;9.53;3.93;;;-3.10;59.60;;;-5.29;54.57;101811.56;10451169;27;98427;-77
2022/03/11 00:57:38;;;;;;;10.50;4.70;;;-3.10;58.70;;;-5.34;55.04;101808.22;10404892;27;96488;-76
2022/03/11 01:02:41;;;;;;;12.80;3.63;;;-3.10;58.90;;;-5.36;54.22;101804.81;10402694;27;96339;-76
2022/03/11 01:07:45;;;;;;;10.03;4.27;;;-3.20;58.50;;;-5.38;54.85;101794.47;10411854;27;97373;-77
2022/03/11 01:12:48;;;;;;;8.20;3.80;;;-3.20;58.70;;;-5.41;54.81;101806.63;10456069;27;96797;-77
2022/03/11 01:17:50;;;;;;;8.47;3.57;;;-3.30;60.10;;;-5.49;55.47;101798.97;10449016;27;96498;-77
2022/03/11 01:22:53;;;;;;;8.10;3.50;;;-3.30;60.50;;;-5.57;55.34;101795.69;10442203;27;96593;-77
2022/03/11 01:27:56;;;;;;;9.93;3.20;;;-3.30;59.60;;;-5.70;55.58;101802.81;10415977;27;96712;-76
2022/03/11 01:32:59;;;;;;;7.70;3.80;;;-3.40;60.60;;;-5.81;55.68;101796.94;10399305;27;96503;-76
2022/03/11 01:38:03;;;;;;;7.27;3.37;;;-3.50;60.90;;;-5.87;56.18;101786.69;10426960;27;96896;-77
2022/03/11 01:43:16;;;;;;;17.83;5.47;;;-3.60;61.50;;;-5.99;56.52;101787.78;10390602;27;96480;-77
2022/03/11 01:48:19;;;;;;;8.83;3.57;;;-3.70;61.40;;;-6.08;56.56;101795.66;10435306;27;96701;-77
2022/03/11 01:53:22;;;;;;;10.87;4.27;;;-3.70;61.40;;;-6.20;56.67;101788.94;10452249;27;96885;-77
2022/03/11 01:58:26;;;;;;;6.60;3.60;;;-3.80;62.20;;;-6.31;56.90;101783.06;10435459;27;97281;-76
2022/03/11 02:03:30;;;;;;;10.37;4.17;;;-3.90;62.20;;;-6.38;56.98;101784.03;10420925;27;96665;-77
2022/03/11 02:08:34;;;;;;;7.10;3.30;;;-4.00;62.20;;;-6.45;57.65;101786.72;10441180;27;96825;-76
2022/03/11 02:13:46;;;;;;;6.67;2.80;;;-4.00;63.30;;;-6.54;58.04;101792.88;10425967;27;96647;-77
2022/03/11 02:18:49;;;;;;;;;;;-4.10;62.70;;;-6.59;58.69;101787.78;10424867;27;96697;-76
2022/03/11 02:23:59;;;;;;;10.57;3.53;;;-4.20;65.20;;;-6.67;59.52;101792.19;10416093;27;96782;-77
2022/03/11 02:29:03;;;;;;;11.60;3.00;;;-4.30;64.40;;;-6.74;59.47;101801.75;10430226;27;96490;-77
2022/03/11 02:34:06;;;;;;;10.93;4.40;;;-4.40;64.60;;;-6.79;59.05;101798.34;10399641;28;96667;-77
2022/03/11 02:39:09;;;;;;;10.83;4.27;;;-4.40;64.90;;;-6.82;59.73;101787.22;10426332;27;96569;-77
2022/03/11 02:44:12;;;;;;;17.50;5.17;;;-4.50;65.60;;;-6.88;59.73;101793.31;10439491;27;96670;-77
2022/03/11 02:49:15;;;;;;;38.57;10.10;;;-4.50;65.40;;;-6.93;59.93;101802.84;10406646;28;96649;-77
2022/03/11 02:54:18;;;;;;;56.40;17.10;;;-4.50;66.20;;;-6.93;60.75;101800.25;10399590;27;98367;-77
2022/03/11 02:59:21;;;;;;;36.63;11.97;;;-4.60;66.30;;;-7.00;60.50;101783.13;10434367;27;96504;-77
2022/03/11 03:04:24;;;;;;;23.73;8.00;;;-4.60;66.10;;;-7.06;60.45;101801.28;10414070;27;96618;-77
2022/03/11 03:09:27;;;;;;;24.47;8.27;;;-4.70;65.10;;;-7.11;60.83;101796.16;10423190;27;96655;-77
2022/03/11 03:14:30;;;;;;;28.77;8.10;;;-4.70;66.80;;;-7.09;61.05;101804.75;10423165;27;98357;-77
2022/03/11 03:19:35;;;;;;;34.47;10.43;;;-4.70;67.10;;;-7.10;60.92;101802.19;10384240;28;96979;-77
2022/03/11 03:24:38;;;;;;;23.70;6.50;;;-4.70;67.30;;;-7.14;61.17;101796.19;10413582;27;96555;-77
2022/03/11 03:29:41;;;;;;;17.47;6.53;;;-4.70;67.80;;;-7.16;61.46;101787.59;10436011;27;96619;-77
2022/03/11 03:34:44;;;;;;;16.00;5.40;;;-4.80;67.40;;;-7.17;61.46;101790.22;10403615;27;96529;-77
2022/03/11 03:39:47;;;;;;;19.93;6.03;;;-4.80;67.40;;;-7.17;61.90;101790.22;10445201;27;96505;-78
2022/03/11 03:44:53;;;;;;;11.00;4.70;;;-4.80;66.70;;;-7.22;61.56;101787.66;10445610;27;96674;-78
2022/03/11 03:49:56;;;;;;;19.60;4.50;;;-4.80;67.30;;;-7.16;61.56;101804.84;10411328;28;98468;-78
2022/03/11 03:54:59;;;;;;;9.80;3.30;;;-4.90;66.60;;;-6.99;60.87;101787.41;10420052;27;96661;-78
2022/03/11 04:00:04;;;;;;;13.10;4.13;;;-4.80;64.60;;;-6.83;60.27;101801.03;10421042;27;96485;-78
2022/03/11 04:05:08;;;;;;;12.10;4.23;;;-4.70;65.60;;;-6.71;59.54;101811.22;10460265;27;96906;-77
2022/03/11 04:10:13;;;;;;;13.70;4.60;;;-4.60;65.70;;;-6.70;59.20;101812.91;10410602;27;96734;-78
2022/03/11 04:15:16;;;;;;;11.90;4.43;;;-4.50;65.80;;;-6.74;59.37;101806.06;10440411;27;96633;-78
2022/03/11 04:20:19;;;;;;;16.43;6.00;;;-4.50;65.50;;;-6.81;59.97;101802.69;10444223;27;96471;-78
2022/03/11 04:25:23;;;;;;;22.47;6.40;;;-4.50;65.50;;;-6.79;59.40;101819.03;10418159;27;96437;-78
2022/03/11 04:30:26;;;;;;;23.73;8.37;;;-4.50;66.20;;;-6.78;59.87;101817.31;10404639;27;96850;-78
2022/03/11 04:35:29;;;;;;;25.37;8.60;;;-4.50;65.20;;;-6.76;59.48;101824.19;10414896;27;96493;-76
2022/03/11 04:40:32;;;;;;;25.83;7.37;;;-4.50;65.50;;;-6.82;59.32;101826.84;10420852;27;96612;-76
2022/03/11 04:45:35;;;;;;;31.70;9.10;;;-4.60;66.60;;;-6.91;59.54;101819.19;10390205;27;97289;-76
2022/03/11 04:50:38;;;;;;;22.17;8.23;;;-4.60;66.80;;;-7.03;59.92;101821.91;10457956;27;96629;-76
2022/03/11 04:55:41;;;;;;;24.37;9.63;;;-4.70;67.40;;;-7.13;60.33;101830.66;10391295;27;96482;-76
2022/03/11 05:00:44;;;;;;;25.50;9.90;;;-4.70;68.80;;;-7.22;60.65;101838.47;10405527;27;97435;-76
2022/03/11 05:05:47;;;;;;;18.80;6.53;;;-4.80;68.90;;;-7.32;61.59;101835.97;10425573;27;96571;-75
2022/03/11 05:10:50;;;;;;;26.77;8.17;;;-4.90;68.90;;;-7.31;62.09;101836.84;10400780;28;96804;-76
2022/03/11 05:15:53;;;;;;;20.30;8.57;;;-5.00;69.40;;;-7.32;62.00;101840.28;10415891;27;96673;-78
2022/03/11 05:20:56;;;;;;;28.63;9.63;;;-5.00;70.20;;;-7.29;62.26;101845.44;10420001;27;96947;-76
2022/03/11 05:25:59;;;;;;;34.83;11.73;;;-5.00;69.80;;;-7.26;61.80;101840.22;10408793;27;96547;-75
2022/03/11 05:31:02;;;;;;;28.93;9.73;;;-5.00;70.10;;;-7.21;61.59;101845.34;10448102;27;96493;-76
2022/03/11 05:36:07;;;;;;;24.40;8.10;;;-4.90;69.20;;;-7.19;61.91;101843.63;10441659;27;97208;-76
2022/03/11 05:41:10;;;;;;;149.00;27.63;;;-4.90;69.60;;;-7.11;62.09;101858.16;10439228;27;96601;-77
2022/03/11 05:46:13;;;;;;;92.40;23.10;;;-4.80;69.30;;;-7.01;61.76;101858.94;10425338;27;96599;-78
2022/03/11 05:51:16;;;;;;;26.40;9.80;;;-4.80;69.90;;;-6.84;61.05;101864.75;10440410;27;96510;-77
2022/03/11 05:56:20;;;;;;;19.80;5.70;;;-4.70;69.10;;;-6.66;60.78;101861.13;10416752;27;96702;-77
2022/03/11 06:01:23;;;;;;;8.70;4.43;;;-4.50;68.30;;;-6.45;60.33;101872.09;10417166;27;96650;-77
2022/03/11 06:06:27;;;;;;;13.30;4.97;;;-4.40;67.60;;;-6.29;59.93;101874.47;10397888;28;96946;-77
2022/03/11 06:11:30;;;;;;;13.17;5.70;;;-4.20;67.80;;;-6.05;59.45;101877.59;10432508;27;96982;-77
2022/03/11 06:16:34;;;;;;;8.73;4.13;;;-4.00;68.00;;;-5.79;58.85;101884.94;10432806;27;96376;-77
2022/03/11 06:21:37;;;;;;;11.03;3.30;;;-3.80;67.40;;;-5.50;57.69;101885.34;10416014;28;96445;-77
2022/03/11 06:26:43;;;;;;;15.27;4.07;;;-3.60;66.50;;;-5.15;56.70;101874.41;10416896;27;96431;-76
2022/03/11 06:31:46;;;;;;;9.37;3.67;;;-3.30;65.70;;;-4.86;56.19;101867.81;10400524;27;96578;-77
2022/03/11 06:36:50;;;;;;;10.50;3.83;;;-3.00;65.30;;;-4.55;54.68;101888.00;10457964;27;96454;-77
2022/03/11 06:41:52;;;;;;;6.43;3.43;;;-2.80;64.20;;;-4.30;53.96;101878.81;10439372;27;96563;-77
2022/03/11 06:46:55;;;;;;;10.73;4.37;;;-2.50;63.60;;;-4.06;53.23;101880.88;10428689;27;97219;-76
2022/03/11 06:51:58;;;;;;;9.17;3.90;;;-2.30;63.00;;;-3.83;52.79;101884.72;10438518;27;96728;-77
2022/03/11 06:57:01;;;;;;;9.27;3.53;;;-2.10;62.50;;;-3.64;50.62;101878.19;10419635;27;96544;-77
2022/03/11 07:02:05;;;;;;;8.23;3.63;;;-1.80;61.00;;;-3.45;49.89;101890.75;10397365;28;96427;-77
2022/03/11 07:07:09;;;;;;;6.90;3.50;;;-1.70;60.10;;;-3.25;49.70;101898.88;10428066;27;96576;-77
2022/03/11 07:12:12;;;;;;;7.33;3.13;;;-1.50;59.80;;;-3.09;49.11;101894.16;10454855;27;96540;-77
2022/03/11 07:17:15;;;;;;;9.70;4.27;;;-1.30;58.10;;;-2.98;48.54;101903.41;10458769;27;96540;-77
2022/03/11 07:22:18;;;;;;;10.30;4.50;;;-1.20;58.40;;;-2.79;48.39;101895.09;10451374;27;96557;-77
2022/03/11 07:27:29;;;;;;;12.17;5.13;;;-1.00;58.00;;;-2.64;47.60;101889.47;10432355;27;96773;-77
2022/03/11 07:32:32;;;;;;;12.73;4.27;;;-0.80;58.10;;;-2.42;47.71;101894.94;10423877;27;96412;-77
2022/03/11 07:37:36;;;;;;;10.73;3.93;;;-0.60;56.90;;;-2.19;47.14;101886.47;10404358;28;97773;-75
2022/03/11 07:42:42;;;;;;;10.03;3.93;;;-0.40;57.00;;;-2.04;45.11;101895.56;10426185;27;96548;-78
2022/03/11 07:47:45;;;;;;;23.77;9.13;;;-0.30;56.20;;;-1.84;45.90;101895.84;10445138;27;96458;-76
2022/03/11 07:52:49;;;;;;;16.77;5.10;;;0.00;55.70;;;-1.74;43.92;101894.66;10443158;27;96538;-75
2022/03/11 07:57:51;;;;;;;10.97;4.33;;;0.10;54.70;;;-1.53;44.15;101903.53;10388244;28;96559;-76
2022/03/11 08:02:54;;;;;;;8.57;4.00;;;0.20;54.40;;;-1.16;43.61;101886.69;10428867;27;97563;-76
2022/03/11 08:07:59;;;;;;;7.30;3.57;;;0.50;53.80;;;0.33;41.63;101892.53;10436664;27;96565;-75
2022/03/11 08:13:04;;;;;;;6.33;3.30;;;0.80;53.70;;;1.23;38.92;101880.91;10445261;27;96518;-76
2022/03/11 08:18:07;;;;;;;7.40;4.13;;;1.30;52.00;;;1.41;38.04;101876.63;10401621;28;96567;-76
2022/03/11 08:23:11;;;;;;;10.93;4.53;;;1.80;52.00;;;1.86;37.40;101871.94;10416353;27;97337;-76
2022/03/11 08:28:15;;;;;;;9.50;4.23;;;2.30;51.10;;;2.22;36.56;101863.25;10418516;27;96578;-76
2022/03/11 08:33:22;;;;;;;12.80;5.93;;;2.60;49.90;;;2.89;36.15;101862.56;10417973;27;96574;-76
2022/03/11 08:38:46;;;;;;;9.10;4.20;;;3.10;50.30;;;3.48;34.42;101853.34;10390742;27;97118;-76
2022/03/11 08:43:49;;;;;;;8.73;3.97;;;3.70;49.70;;;4.12;33.67;101845.47;10401191;27;96741;-76
2022/03/11 08:48:52;;;;;;;8.43;3.70;;;4.20;49.20;;;4.00;32.23;101845.22;10431917;27;96482;-76
2022/03/11 08:53:55;;;;;;;7.97;3.27;;;4.40;46.30;;;3.55;31.73;101840.72;10441321;27;96913;-76
2022/03/11 08:58:58;;;;;;;9.40;4.43;;;4.40;42.80;;;3.09;32.36;101834.41;10400768;28;96489;-76
2022/03/11 09:04:01;;;;;;;9.10;3.70;;;4.30;44.60;;;3.32;32.81;101831.44;10423646;27;96510;-76
2022/03/11 09:09:05;;;;;;;9.83;4.00;;;4.40;44.80;;;3.82;30.98;101827.84;10421930;27;97500;-79
2022/03/11 09:14:08;;;;;;;9.03;4.10;;;4.70;44.30;;;4.08;30.86;101820.25;10384681;27;97070;-77
2022/03/11 09:19:12;;;;;;;9.23;4.40;;;5.00;43.90;;;4.76;29.88;101811.03;10424696;27;96476;-76
2022/03/11 09:24:16;;;;;;;7.20;3.50;;;5.50;40.70;;;5.35;29.07;101803.91;10427641;27;96448;-76
2022/03/11 09:29:19;;;;;;;7.73;3.80;;;5.90;43.40;;;5.95;27.61;101804.59;10405631;27;97243;-76
2022/03/11 09:34:24;;;;;;;7.80;3.70;;;6.50;42.70;;;6.32;27.68;101797.78;10423800;27;96587;-76
2022/03/11 09:39:27;;;;;;;6.73;3.37;;;6.80;42.10;;;6.37;26.15;101785.13;10442717;27;96468;-77
2022/03/11 09:44:30;;;;;;;5.40;3.00;;;7.00;38.60;;;5.98;26.08;101791.19;10409230;27;97464;-77
2022/03/11 09:49:34;;;;;;;10.07;3.20;;;6.80;40.30;;;5.70;26.54;101792.09;10417072;28;96470;-76
2022/03/11 09:54:37;;;;;;;5.90;3.53;;;6.50;39.40;;;5.19;26.74;101794.41;10384136;27;96522;-76
2022/03/11 09:59:39;;;;;;;6.57;3.50;;;6.20;38.60;;;5.84;27.19;101782.34;10399268;28;96981;-76
2022/03/11 10:04:58;;;;;;;5.23;3.33;;;6.50;39.10;;;6.36;26.04;101783.44;10430831;27;96555;-76
2022/03/11 10:10:23;;;;;;;8.17;3.27;;;6.90;39.10;;;6.27;26.18;101776.09;10405426;27;96683;-78
2022/03/11 10:15:43;;;;;;;5.30;2.90;;;6.90;37.80;;;6.03;26.10;101773.28;10440837;27;97057;-77
2022/03/11 10:20:50;;;;;;;5.77;2.97;;;6.80;37.60;;;6.11;26.13;101778.91;10437829;27;96438;-77
2022/03/11 10:25:53;;;;;;;6.00;3.20;;;7.10;39.20;;;6.37;25.25;101769.28;10437645;27;96512;-75
2022/03/11 10:31:10;;;;;;;6.10;2.77;;;7.30;36.60;;;6.74;24.62;101765.00;10425749;27;96436;-75
2022/03/11 10:36:13;;;;;;;8.37;3.60;;;7.60;38.00;;;7.38;24.38;101757.03;10429200;27;96650;-77
2022/03/11 10:41:17;;;;;;;5.73;3.23;;;8.20;37.30;;;8.18;24.07;101752.88;10407539;28;96494;-77
2022/03/11 10:46:25;;;;;;;6.37;3.67;;;8.90;36.70;;;8.61;22.21;101741.72;10437728;27;97723;-76
2022/03/11 10:51:34;;;;;;;9.47;2.83;;;9.40;36.20;;;9.53;21.88;101737.97;10432273;27;96463;-76
2022/03/11 10:56:40;;;;;;;7.05;2.67;;;10.10;36.10;;;9.58;20.01;101721.69;10414579;28;96534;-78
2022/03/11 11:01:44;;;;;;;6.25;2.95;;;10.60;33.10;;;10.08;20.77;101714.06;10413605;27;96804;-76
2022/03/11 11:06:48;;;;;;;6.43;3.83;;;11.00;34.30;;;10.33;20.22;101704.91;10418593;27;96532;-78
2022/03/11 11:11:52;;;;;;;5.03;3.00;;;11.40;33.50;;;10.74;19.76;101696.06;10387996;27;96437;-78
2022/03/11 11:16:59;;;;;;;4.53;2.78;;;11.70;32.90;;;10.99;19.15;101692.94;10446172;27;97632;-78
2022/03/11 11:22:04;;;;;;;9.27;2.95;;;12.00;32.80;;;10.96;19.06;101685.22;10438133;27;96713;-77
2022/03/11 11:27:08;;;;;;;7.07;2.90;;;12.00;31.10;;;11.08;19.23;101667.34;10412196;28;96477;-77
2022/03/11 11:32:11;;;;;;;5.35;2.92;;;12.10;31.60;;;11.41;18.75;101678.63;10421464;27;96622;-77
2022/03/11 11:37:38;;;;;;;6.70;3.10;;;12.40;30.70;;;11.29;19.36;101667.28;10406748;27;98474;-77
2022/03/11 11:43:13;;;;;;;15.88;4.93;;;12.30;29.90;;;11.07;17.98;101662.16;10439544;27;96584;-78
2022/03/11 11:48:35;;;;;;;5.97;3.15;;;12.30;28.40;;;10.77;18.50;101650.56;10434318;27;98216;-77
2022/03/11 11:53:54;;;;;;;16.27;4.97;;;12.10;30.00;;;11.20;19.06;101644.13;10455790;27;96509;-77
2022/03/11 11:59:02;;;;;;;4.38;2.45;;;12.30;30.00;;;11.33;17.55;101626.06;10430922;27;98312;-77
2022/03/11 12:04:32;;;;;;;12.80;5.22;;;12.60;29.20;;;11.41;18.27;101630.72;10427951;27;97315;-77
2022/03/11 12:15:00;;;;;;;4.57;2.75;;;12.70;28.90;;;11.28;17.32;101616.84;10420821;28;96960;-77
2022/03/11 12:20:51;;;;;;;3.08;2.03;;;12.50;28.50;;;11.21;17.19;101609.38;10423687;27;98183;-77
2022/03/11 12:26:01;;;;;;;5.00;2.33;;;12.30;27.50;;;11.53;16.45;101606.50;10389440;28;98619;-78
2022/03/11 12:31:10;;;;;;;4.30;2.47;;;12.70;28.50;;;11.05;16.63;101597.63;10378463;28;97387;-78
2022/03/11 12:36:22;;;;;;;4.13;2.23;;;12.30;27.90;;;10.14;17.76;101599.31;10420049;28;96709;-77
2022/03/11 12:41:30;;;;;;;4.87;2.33;;;11.50;28.50;;;8.95;18.31;101599.44;10360972;28;97433;-77
2022/03/11 12:46:33;;;;;;;3.40;2.10;;;10.60;28.30;;;7.79;18.60;101600.53;10385250;28;96454;-77
2022/03/11 12:51:36;;;;;;;5.27;2.23;;;9.60;28.40;;;7.01;19.57;101594.88;10359866;28;96429;-77
2022/03/11 12:56:40;;;;;;;4.63;2.20;;;8.80;28.90;;;6.37;20.22;101590.56;10358724;28;96401;-76
2022/03/11 13:01:43;;;;;;;5.60;2.50;;;8.20;29.40;;;6.06;21.03;101591.84;10359360;28;96599;-77
2022/03/11 13:06:49;;;;;;;4.93;2.50;;;7.80;30.00;;;5.75;21.31;101590.38;10379183;28;96515;-75
2022/03/11 13:11:51;;;;;;;6.17;3.20;;;7.50;29.90;;;5.62;21.50;101595.63;10400040;28;96558;-76
2022/03/11 13:16:54;;;;;;;6.60;3.07;;;7.40;30.10;;;5.55;21.56;101583.81;10400313;28;96457;-76
2022/03/11 13:21:57;;;;;;;3.77;2.10;;;7.30;30.30;;;5.54;22.03;101579.47;10400024;28;96499;-75
2022/03/11 13:27:08;;;;;;;5.17;2.40;;;7.30;30.60;;;5.47;21.50;101569.44;10364195;28;96511;-76
2022/03/11 13:32:11;;;;;;;6.17;2.33;;;7.20;30.30;;;5.37;21.35;101563.94;10380112;28;96797;-76
2022/03/11 13:37:16;;;;;;;3.53;2.10;;;7.20;30.40;;;5.42;22.13;101553.94;10417992;28;96404;-76
2022/03/11 13:42:26;;;;;;;5.50;3.20;;;7.20;30.70;;;5.57;21.98;101552.88;10396367;28;96561;-76
2022/03/11 13:47:29;;;;;;;8.25;3.20;;;7.40;30.60;;;5.71;21.56;101548.50;10362982;28;96622;-76
2022/03/11 13:52:41;;;;;;;4.60;2.10;;;7.60;30.40;;;5.79;20.82;101547.03;10380065;28;96605;-76
2022/03/11 13:57:45;;;;;;;4.33;1.70;;;7.80;30.00;;;5.89;20.42;101540.19;10413250;28;96735;-76
2022/03/11 14:02:49;;;;;;;3.47;1.60;;;8.00;29.60;;;5.89;20.53;101534.06;10387543;28;96602;-77
2022/03/11 14:08:03;;;;;;;14.17;3.87;;;7.90;29.40;;;5.91;19.86;101540.09;10365801;28;96832;-76
2022/03/11 14:13:10;;;;;;;5.83;3.63;;;8.00;29.00;;;6.02;19.43;101532.31;10362116;28;98067;-76
2022/03/11 14:18:17;;;;;;;4.03;1.80;;;8.10;28.50;;;6.09;19.38;101533.56;10384414;28;96665;-76
2022/03/11 14:23:36;;;;;;;3.30;1.57;;;8.20;28.20;;;6.25;19.38;101517.50;10426496;27;97073;-76
2022/03/11 14:28:40;;;;;;;2.53;1.47;;;8.30;28.50;;;6.22;18.73;101511.59;10430989;27;96625;-76
2022/03/11 14:33:43;;;;;;;4.40;1.70;;;8.30;27.60;;;6.20;18.89;101511.69;10421391;27;98234;-76
2022/03/11 14:38:47;;;;;;;3.27;1.30;;;8.30;28.10;;;6.28;19.21;101505.88;10429297;27;96663;-75
2022/03/11 14:43:50;;;;;;;32.47;13.37;;;8.40;28.50;;;6.12;19.05;101495.56;10419578;27;98400;-76
2022/03/11 14:48:55;;;;;;;5.13;2.70;;;8.20;28.00;;;6.03;18.67;101502.31;10434608;27;97730;-75
2022/03/11 14:53:58;;;;;;;8.83;4.40;;;8.00;27.90;;;5.90;18.81;101490.91;10425140;27;96603;-75
2022/03/11 14:59:02;;;;;;;3.50;1.80;;;7.70;27.80;;;5.74;18.70;101490.25;10422148;27;96684;-75
2022/03/11 15:04:06;;;;;;;9.40;3.47;;;7.50;27.80;;;5.59;18.79;101493.00;10426171;27;97185;-77
2022/03/11 15:09:08;;;;;;;6.13;2.70;;;7.30;27.90;;;5.53;19.03;101496.06;10424863;27;96722;-76
2022/03/11 15:14:11;;;;;;;2.43;1.60;;;7.20;28.30;;;5.48;19.49;101484.13;10416447;27;96524;-76
2022/03/11 15:19:14;;;;;;;4.13;1.63;;;7.10;28.90;;;5.43;19.41;101479.16;10435786;27;96832;-76
2022/03/11 15:24:20;;;;;;;3.37;1.60;;;7.10;28.50;;;5.30;19.27;101478.31;10427288;27;96562;-76
2022/03/11 15:29:29;;;;;;;;;;;6.90;28.50;;;5.20;19.20;101488.59;10417819;27;96930;-75
2022/03/11 15:34:31;;;;;;;7.77;3.60;;;6.80;28.00;;;5.03;19.06;101475.69;10436577;27;96787;-77
2022/03/11 15:39:34;;;;;;;4.53;2.00;;;6.70;28.20;;;4.89;18.77;101473.97;10438104;27;96741;-77
2022/03/11 15:44:37;;;;;;;4.83;2.30;;;6.50;28.10;;;4.69;19.20;101480.53;10436145;27;96528;-77
2022/03/11 15:49:40;;;;;;;4.87;1.83;;;6.40;28.20;;;4.53;19.07;101480.66;10460997;27;98378;-78
2022/03/11 15:54:43;;;;;;;4.73;1.90;;;6.20;28.30;;;4.38;19.08;101479.03;10423758;27;96529;-77
2022/03/11 15:59:46;;;;;;;3.67;1.30;;;6.10;28.20;;;4.21;19.28;101471.34;10431802;27;96587;-77
2022/03/11 16:05:11;;;;;;;5.40;2.33;;;6.00;28.40;;;3.94;19.30;101485.25;10429031;27;98356;-77
2022/03/11 16:10:25;;;;;;;8.43;3.30;;;5.80;28.50;;;3.65;19.51;101487.00;10440774;27;97987;-77
2022/03/11 16:15:30;;;;;;;9.80;3.80;;;5.60;28.70;;;3.36;19.75;101491.38;10448947;27;96569;-77
2022/03/11 16:20:34;;;;;;;35.67;12.63;;;5.40;28.70;;;3.10;19.69;101486.78;10417891;27;98392;-77
2022/03/11 16:25:37;;;;;;;19.73;10.20;;;5.10;28.40;;;2.86;19.76;101487.25;10422938;27;96977;-77
2022/03/11 16:30:58;;;;;;;29.87;11.93;;;4.90;28.50;;;2.62;19.71;101486.84;10395319;27;96661;-77
2022/03/11 16:36:21;;;;;;;23.13;12.30;;;4.60;28.60;;;2.31;20.46;101487.69;10426252;27;96619;-77
2022/03/11 16:41:24;;;;;;;13.83;7.57;;;4.40;29.00;;;1.99;21.21;101494.66;10425755;27;96777;-77
2022/03/11 16:46:27;;;;;;;12.20;6.10;;;4.10;29.40;;;1.62;22.22;101493.13;10440568;27;96612;-76
2022/03/11 16:51:31;;;;;;;15.97;7.07;;;3.80;29.80;;;1.26;23.74;101493.19;10424042;27;96496;-77
2022/03/11 16:56:34;;;;;;;27.93;10.50;;;3.50;30.90;;;0.88;24.60;101500.31;10401230;27;96577;-77
2022/03/11 17:01:38;;;;;;;36.03;15.27;;;3.10;31.50;;;0.49;25.24;101501.28;10428677;27;96450;-76
2022/03/11 17:06:41;;;;;;;68.47;25.23;;;2.80;32.20;;;0.14;26.42;101505.53;10411997;27;98149;-76
2022/03/11 17:11:47;;;;;;;110.20;37.07;;;2.40;33.40;;;-0.19;27.51;101518.31;10400098;27;96720;-77
2022/03/11 17:16:50;;;;;;;142.43;45.20;;;2.10;34.20;;;-0.50;27.83;101534.44;10430368;27;97983;-77
2022/03/11 17:21:54;;;;;;;113.23;37.80;;;1.80;34.00;;;-0.78;28.02;101529.50;10441554;27;96566;-77
2022/03/11 17:27:00;;;;;;;143.30;43.67;;;1.50;34.20;;;-1.04;28.23;101528.81;10438438;27;98941;-77
2022/03/11 17:32:04;;;;;;;96.13;30.20;;;1.30;34.90;;;-1.25;28.37;101530.53;10442664;27;96614;-77
2022/03/11 17:37:08;;;;;;;87.30;28.97;;;1.10;34.50;;;-1.43;28.96;101529.47;10435969;27;96713;-77
2022/03/11 17:42:11;;;;;;;125.97;41.70;;;0.90;35.70;;;-1.56;28.85;101535.19;10418481;27;96640;-77
2022/03/11 17:47:14;;;;;;;92.10;31.07;;;0.70;34.90;;;-1.71;28.70;101544.44;10434309;27;97021;-76
2022/03/11 17:52:17;;;;;;;52.23;19.57;;;0.50;34.70;;;-1.85;29.76;101549.31;10435089;27;96458;-78
2022/03/11 17:57:20;;;;;;;29.17;12.80;;;0.40;36.70;;;-2.04;30.13;101550.00;10398837;27;96578;-77
2022/03/11 18:02:23;;;;;;;54.50;20.63;;;0.20;36.60;;;-2.18;30.22;101555.66;10424529;27;97207;-78
2022/03/11 18:07:29;;;;;;;76.27;26.30;;;0.10;36.60;;;-2.35;30.74;101554.53;10449299;27;96593;-77
2022/03/11 18:12:33;;;;;;;28.90;10.43;;;-0.10;37.50;;;-2.53;32.20;101567.28;10469586;27;96825;-77
2022/03/11 18:17:36;;;;;;;27.13;10.20;;;-0.30;38.60;;;-2.72;31.93;101558.38;10454099;27;96573;-77
2022/03/11 18:22:41;;;;;;;49.17;18.17;;;-0.40;38.30;;;-2.85;32.53;101564.88;10399462;28;96664;-81
2022/03/11 18:27:44;;;;;;;33.77;13.73;;;-0.60;38.30;;;-2.98;33.54;101570.47;10435001;27;96627;-79
2022/03/11 18:32:47;;;;;;;23.73;9.30;;;-0.70;40.50;;;-3.09;33.86;101567.34;10428081;27;96583;-76
2022/03/11 18:37:50;;;;;;;29.80;11.93;;;-0.80;39.50;;;-3.22;33.95;101576.44;10429854;27;96847;-78
2022/03/11 18:42:53;;;;;;;25.97;11.30;;;-1.00;40.20;;;-3.33;35.03;101588.91;10428066;27;96594;-79
2022/03/11 18:47:56;;;;;;;30.67;10.77;;;-1.10;41.30;;;-3.44;34.89;101593.56;10444151;27;96809;-78
2022/03/11 18:52:59;;;;;;;23.70;9.50;;;-1.20;41.50;;;-3.56;35.16;101597.34;10404997;27;96679;-78
2022/03/11 18:58:02;;;;;;;21.97;8.37;;;-1.30;41.60;;;-3.66;35.84;101607.16;10421859;27;96725;-78
2022/03/11 19:03:06;;;;;;;26.50;11.47;;;-1.40;42.20;;;-3.74;36.67;101614.31;10422954;27;98199;-78
2022/03/11 19:08:10;;;;;;;25.27;11.03;;;-1.50;42.90;;;-3.83;36.92;101617.19;10446035;27;97815;-78
2022/03/11 19:13:14;;;;;;;22.17;9.20;;;-1.60;44.00;;;-3.92;37.08;101627.78;10429117;27;96676;-77
2022/03/11 19:18:18;;;;;;;20.30;8.77;;;-1.70;43.60;;;-4.00;37.40;101632.34;10428848;27;96779;-77
2022/03/11 19:23:21;;;;;;;15.27;6.67;;;-1.70;42.90;;;-4.07;37.56;101642.03;10425620;27;96623;-76
2022/03/11 19:28:24;;;;;;;15.80;7.50;;;-1.80;43.90;;;-4.06;37.89;101644.59;10451342;27;96506;-76
2022/03/11 19:33:34;;;;;;;19.43;8.30;;;-1.90;44.00;;;-4.08;37.53;101646.38;10437296;27;96639;-77
2022/03/11 19:38:42;;;;;;;29.00;9.70;;;-1.90;43.20;;;-4.12;37.64;101659.47;10412343;27;96533;-77
2022/03/11 19:43:45;;;;;;;26.27;9.20;;;-1.90;43.70;;;-4.15;37.57;101659.53;10411628;27;97184;-77
2022/03/11 19:48:48;;;;;;;20.67;7.87;;;-1.90;43.90;;;-4.17;37.39;101669.13;10426690;28;98278;-74
2022/03/11 19:53:53;;;;;;;37.80;11.97;;;-2.00;42.30;;;-4.11;37.38;101666.38;10416874;27;96649;-77
2022/03/11 19:58:56;;;;;;;37.83;12.40;;;-2.00;43.60;;;-4.04;37.45;101673.09;10433207;27;97058;-77
2022/03/11 20:03:59;;;;;;;27.80;9.00;;;-1.90;43.60;;;-4.10;37.46;101675.84;10442828;27;96772;-77
2022/03/11 20:09:07;;;;;;;25.30;10.07;;;-2.00;43.40;;;-4.17;37.55;101688.16;10427703;27;96634;-76
2022/03/11 20:14:12;;;;;;;23.27;7.63;;;-2.00;43.20;;;-4.29;38.20;101688.44;10439847;27;97381;-77
2022/03/11 20:19:15;;;;;;;19.87;8.00;;;-2.10;43.60;;;-4.37;38.51;101687.78;10439797;27;96559;-77
2022/03/11 20:24:19;;;;;;;19.63;7.07;;;-2.10;44.40;;;-4.47;38.99;101687.13;10455287;27;96920;-78
2022/03/11 20:29:22;;;;;;;19.40;6.97;;;-2.20;44.90;;;-4.57;39.35;101683.03;10419241;27;96720;-78
2022/03/11 20:34:25;;;;;;;30.67;7.57;;;-2.30;44.30;;;-4.60;40.06;101693.50;10458844;27;98394;-78
2022/03/11 20:39:28;;;;;;;29.07;8.23;;;-2.40;47.00;;;-4.62;40.32;101687.47;10390956;28;96517;-77
2022/03/11 20:44:31;;;;;;;26.10;8.57;;;-2.40;46.20;;;-4.69;40.45;101696.28;10418547;27;96588;-78
2022/03/11 20:49:34;;;;;;;24.33;8.23;;;-2.50;47.20;;;-4.80;40.66;101701.72;10459831;27;97149;-78
2022/03/11 20:54:37;;;;;;;21.63;9.07;;;-2.50;45.80;;;-4.86;40.67;101714.81;10426436;27;96724;-79
2022/03/11 20:59:40;;;;;;;24.20;10.80;;;-2.60;46.90;;;-4.92;40.85;101718.41;10407488;27;97004;-78
2022/03/11 21:04:43;;;;;;;20.23;7.90;;;-2.70;46.70;;;-4.98;41.23;101720.25;10425861;27;97003;-78